createdAt,value
2019-05-10T00:00:50.334Z,0.40
2019-05-10T00:03:37.033Z,0.67
2019-05-10T00:06:23.835Z,0.50
2019-05-10T00:08:51.757Z,0.40
2019-05-10T00:11:31.198Z,0.30
2019-05-10T00:14:29.993Z,0.40
2019-05-10T00:17:03.480Z,0.40
2019-05-10T00:19:32.493Z,0.50
2019-05-10T00:22:01.297Z,0.40
2019-05-10T00:24:30.074Z,0.50
2019-05-10T00:26:58.916Z,0.40
2019-05-10T00:29:27.728Z,0.40
2019-05-10T00:31:56.527Z,0.40
2019-05-10T00:34:25.309Z,0.60
2019-05-10T00:36:54.104Z,0.30
2019-05-10T00:39:23.022Z,0.50
2019-05-10T00:41:51.858Z,0.50
2019-05-10T00:44:20.802Z,0.50
2019-05-10T00:46:49.736Z,0.40
2019-05-10T00:49:18.888Z,0.47
2019-05-10T00:51:47.756Z,0.50
2019-05-10T00:54:16.913Z,0.70
2019-05-10T00:56:45.719Z,0.40
2019-05-10T00:59:14.642Z,0.63
2019-05-10T01:01:43.491Z,0.50
2019-05-10T01:04:12.250Z,0.30
2019-05-10T01:06:41.200Z,0.50
2019-05-10T01:09:11.627Z,0.53
2019-05-10T01:11:40.712Z,0.30
2019-05-10T01:14:09.479Z,0.40
2019-05-10T01:16:38.374Z,0.43
2019-05-10T01:19:07.272Z,0.50
2019-05-10T01:21:36.323Z,0.80
2019-05-10T01:24:05.301Z,0.40
2019-05-10T01:26:34.021Z,0.40
2019-05-10T01:29:02.807Z,0.60
2019-05-10T01:31:31.600Z,0.40
2019-05-10T01:34:02.323Z,0.50
2019-05-10T01:36:31.162Z,0.40
2019-05-10T01:39:00.337Z,0.80
2019-05-10T01:41:29.247Z,0.70
2019-05-10T01:43:58.012Z,0.40
2019-05-10T01:46:26.795Z,0.80
2019-05-10T01:48:55.694Z,0.60
2019-05-10T01:51:27.663Z,0.40
2019-05-10T01:53:54.887Z,0.40
2019-05-10T01:56:24.065Z,0.40
2019-05-10T01:58:52.816Z,0.77
2019-05-10T02:01:21.703Z,0.40
2019-05-10T02:03:50.892Z,0.40
2019-05-10T02:06:19.705Z,0.30
2019-05-10T02:08:48.437Z,0.63
2019-05-10T02:11:18.298Z,0.40
2019-05-10T02:13:47.403Z,0.40
2019-05-10T02:16:17.131Z,0.50
2019-05-10T02:18:45.950Z,0.40
2019-05-10T02:21:14.900Z,0.50
2019-05-10T02:23:43.605Z,0.57
2019-05-10T02:26:12.345Z,0.50
2019-05-10T02:28:41.175Z,0.50
2019-05-10T02:31:10.175Z,0.40
2019-05-10T02:33:39.040Z,0.60
2019-05-10T02:36:08.127Z,0.53
2019-05-10T02:38:36.975Z,0.60
2019-05-10T02:41:05.815Z,0.77
2019-05-10T02:43:34.570Z,0.57
2019-05-10T02:46:03.616Z,0.50
2019-05-10T02:48:32.612Z,0.83
2019-05-10T02:51:01.511Z,0.60
2019-05-10T02:53:30.653Z,0.70
2019-05-10T02:56:03.578Z,0.80
2019-05-10T02:58:33.598Z,0.70
2019-05-10T03:01:02.461Z,0.53
2019-05-10T03:03:32.772Z,0.60
2019-05-10T03:06:03.182Z,0.73
2019-05-10T03:08:47.342Z,0.77
2019-05-10T03:11:16.131Z,0.57
2019-05-10T03:13:48.182Z,0.53
2019-05-10T03:16:20.483Z,0.70
2019-05-10T03:18:50.737Z,0.90
2019-05-10T03:21:19.839Z,0.80
2019-05-10T03:23:48.965Z,0.80
2019-05-10T03:26:17.869Z,0.70
2019-05-10T03:28:46.981Z,0.87
2019-05-10T03:31:15.882Z,0.53
2019-05-10T03:33:44.760Z,0.80
2019-05-10T03:36:13.743Z,0.77
2019-05-10T03:38:43.193Z,0.53
2019-05-10T03:41:12.409Z,1.07
2019-05-10T03:43:41.563Z,0.90
2019-05-10T03:46:10.765Z,0.90
2019-05-10T03:48:39.628Z,0.70
2019-05-10T03:51:08.481Z,0.90
2019-05-10T03:53:37.255Z,1.13
2019-05-10T03:56:06.311Z,0.70
2019-05-10T03:58:35.082Z,1.00
2019-05-10T04:01:03.852Z,0.80
2019-05-10T04:03:32.682Z,1.00
2019-05-10T04:06:01.529Z,0.80
2019-05-10T04:08:30.367Z,1.00
2019-05-10T04:10:59.697Z,0.90
2019-05-10T04:13:28.448Z,1.00
2019-05-10T04:15:57.439Z,1.10
2019-05-10T04:18:27.025Z,1.13
2019-05-10T04:20:55.794Z,1.03
2019-05-10T04:23:24.665Z,1.00
2019-05-10T04:25:54.135Z,0.90
2019-05-10T04:28:23.211Z,0.90
2019-05-10T04:30:52.380Z,0.93
2019-05-10T04:33:21.245Z,1.00
2019-05-10T04:35:50.123Z,1.00
2019-05-10T04:38:18.988Z,1.10
2019-05-10T04:40:47.737Z,0.83
2019-05-10T04:43:17.657Z,1.00
2019-05-10T04:45:46.401Z,1.03
2019-05-10T04:48:15.288Z,1.10
2019-05-10T04:50:48.584Z,1.10
2019-05-10T04:53:14.736Z,1.20
2019-05-10T04:55:44.524Z,1.20
2019-05-10T04:58:13.469Z,1.13
2019-05-10T05:00:42.276Z,0.80
2019-05-10T05:03:11.181Z,1.13
2019-05-10T05:05:39.936Z,1.30
2019-05-10T05:08:08.900Z,1.17
2019-05-10T05:10:39.724Z,1.27
2019-05-10T05:13:08.595Z,1.00
2019-05-10T05:15:37.405Z,1.13
2019-05-10T05:18:06.324Z,1.20
2019-05-10T05:20:35.046Z,0.90
2019-05-10T05:23:03.937Z,1.00
2019-05-10T05:25:38.257Z,1.27
2019-05-10T05:28:07.997Z,0.80
2019-05-10T05:30:38.489Z,1.10
2019-05-10T05:33:05.694Z,0.87
2019-05-10T05:35:34.483Z,1.20
2019-05-10T05:38:03.624Z,1.07
2019-05-10T05:40:32.793Z,1.27
2019-05-10T05:43:02.666Z,1.03
2019-05-10T05:45:35.712Z,1.03
2019-05-10T05:48:07.047Z,0.90
2019-05-10T05:50:35.993Z,0.80
2019-05-10T05:53:06.856Z,0.90
2019-05-10T05:55:35.748Z,0.67
2019-05-10T05:58:07.049Z,1.17
2019-05-10T06:00:37.947Z,0.73
2019-05-10T06:03:08.713Z,0.60
2019-05-10T06:05:37.780Z,0.67
2019-05-10T06:08:21.459Z,0.53
2019-05-10T06:10:37.600Z,0.50
2019-05-10T06:13:06.616Z,0.60
2019-05-10T06:15:35.661Z,0.50
2019-05-10T06:18:09.543Z,0.70
2019-05-10T06:20:38.101Z,0.60
2019-05-10T06:23:07.226Z,0.60
2019-05-10T06:25:39.997Z,0.50
2019-05-10T06:28:25.323Z,0.60
2019-05-10T06:30:37.801Z,0.50
2019-05-10T06:33:12.600Z,0.60
2019-05-10T06:35:37.391Z,0.60
2019-05-10T06:38:06.240Z,0.63
2019-05-10T06:40:44.773Z,0.53
2019-05-10T06:43:06.784Z,0.47
2019-05-10T06:45:36.576Z,0.70
2019-05-10T06:48:05.558Z,0.60
2019-05-10T06:50:34.362Z,0.63
2019-05-10T06:53:07.612Z,0.60
2019-05-10T06:55:33.647Z,0.50
2019-05-10T06:58:02.374Z,0.40
2019-05-10T07:00:31.155Z,0.50
2019-05-10T07:02:59.993Z,0.57
2019-05-10T07:05:36.503Z,1.00
2019-05-10T07:08:15.000Z,0.50
2019-05-10T07:11:01.112Z,0.50
2019-05-10T07:13:19.476Z,0.60
2019-05-10T07:15:48.367Z,0.63
2019-05-10T07:18:22.628Z,0.70
2019-05-10T07:20:48.010Z,0.60
2019-05-10T07:23:16.771Z,0.57
2019-05-10T07:25:46.757Z,0.50
2019-05-10T07:28:17.702Z,0.40
2019-05-10T07:30:47.027Z,0.90
2019-05-10T07:33:15.936Z,0.57
2019-05-10T07:35:44.771Z,0.53
2019-05-10T07:38:13.907Z,0.80
2019-05-10T07:43:12.417Z,0.67
2019-05-10T07:45:41.188Z,0.77
2019-05-10T07:48:10.495Z,0.87
2019-05-10T07:50:42.630Z,0.80
2019-05-10T07:53:09.940Z,0.60
2019-05-10T07:55:38.756Z,0.50
2019-05-10T07:58:07.712Z,0.63
2019-05-10T08:00:38.223Z,0.50
2019-05-10T08:03:15.996Z,0.30
2019-05-10T08:05:39.150Z,0.67
2019-05-10T08:08:09.585Z,0.70
2019-05-10T08:10:39.856Z,1.00
2019-05-10T08:13:08.721Z,0.50
2019-05-10T08:15:38.520Z,0.87
2019-05-10T08:18:09.813Z,0.63
2019-05-10T08:20:49.595Z,0.40
2019-05-10T08:23:08.856Z,0.57
2019-05-10T08:25:44.307Z,0.50
2019-05-10T08:28:08.310Z,0.60
2019-05-10T08:30:52.261Z,0.70
2019-05-10T08:33:13.979Z,0.60
2019-05-10T08:35:45.864Z,0.40
2019-05-10T08:38:12.950Z,0.40
2019-05-10T08:40:42.852Z,0.43
2019-05-10T08:43:16.099Z,0.70
2019-05-10T08:45:45.139Z,0.50
2019-05-10T08:48:13.560Z,0.60
2019-05-10T08:50:50.639Z,0.67
2019-05-10T08:53:16.240Z,0.50
2019-05-10T08:55:44.140Z,0.60
2019-05-10T09:01:12.067Z,0.70
2019-05-10T09:03:32.227Z,0.60
2019-05-10T09:06:05.364Z,0.50
2019-05-10T09:08:34.579Z,0.70
2019-05-10T09:11:06.685Z,0.77
2019-05-10T09:13:37.120Z,0.40
2019-05-10T09:16:03.480Z,0.77
2019-05-10T09:18:33.112Z,0.60
2019-05-10T09:21:08.538Z,1.20
2019-05-10T09:23:32.810Z,0.37
2019-05-10T09:26:10.456Z,0.60
2019-05-10T09:28:32.540Z,0.37
2019-05-10T09:31:16.924Z,0.90
2019-05-10T09:33:32.094Z,0.83
2019-05-10T09:36:02.966Z,0.60
2019-05-10T09:38:34.887Z,0.80
2019-05-10T09:41:03.811Z,0.70
2019-05-10T09:43:32.765Z,0.53
2019-05-10T09:46:02.940Z,0.70
2019-05-10T09:48:33.285Z,0.53
2019-05-10T09:51:04.045Z,0.93
2019-05-10T09:53:33.094Z,1.03
2019-05-10T09:56:03.288Z,0.77
2019-05-10T09:58:34.287Z,0.70
2019-05-10T10:01:14.843Z,0.90
2019-05-10T10:03:43.578Z,0.70
2019-05-10T10:06:13.635Z,0.60
2019-05-10T10:08:43.547Z,0.70
2019-05-10T10:11:15.738Z,0.67
2019-05-10T10:13:48.843Z,0.70
2019-05-10T10:16:14.886Z,0.60
2019-05-10T10:18:43.792Z,0.70
2019-05-10T10:21:13.327Z,0.80
2019-05-10T10:23:42.330Z,0.70
2019-05-10T10:26:12.651Z,0.90
2019-05-10T10:28:41.810Z,0.90
2019-05-10T10:31:25.054Z,0.83
2019-05-10T10:33:43.201Z,0.67
2019-05-10T10:36:15.050Z,0.60
2019-05-10T10:38:47.117Z,0.83
2019-05-10T10:41:26.030Z,0.50
2019-05-10T10:43:53.230Z,0.70
2019-05-10T10:46:22.197Z,0.57
2019-05-10T10:48:51.577Z,0.60
2019-05-10T10:51:20.570Z,0.53
2019-05-10T10:53:49.532Z,0.83
2019-05-10T10:56:18.384Z,1.10
2019-05-10T10:58:49.763Z,0.60
2019-05-10T11:01:25.034Z,0.80
2019-05-10T11:03:49.158Z,0.50
2019-05-10T11:06:18.068Z,0.70
2019-05-10T11:08:46.961Z,0.57
2019-05-10T11:11:15.667Z,0.50
2019-05-10T11:13:46.314Z,0.70
2019-05-10T11:16:15.915Z,0.73
2019-05-10T11:18:44.764Z,0.67
2019-05-10T11:21:13.688Z,1.00
2019-05-10T11:23:42.551Z,0.50
2019-05-10T11:26:11.647Z,0.63
2019-05-10T11:28:44.043Z,1.07
2019-05-10T11:31:11.463Z,0.70
2019-05-10T11:33:41.428Z,1.10
2019-05-10T11:36:11.427Z,0.60
2019-05-10T11:38:42.043Z,0.70
2019-05-10T11:41:13.020Z,1.30
2019-05-10T11:43:42.091Z,0.70
2019-05-10T11:46:11.781Z,0.60
2019-05-10T11:48:42.245Z,0.70
2019-05-10T11:51:17.238Z,0.60
2019-05-10T11:53:41.796Z,0.67
2019-05-10T11:56:13.934Z,0.70
2019-05-10T11:58:46.005Z,0.90
2019-05-10T12:01:19.112Z,0.50
2019-05-10T12:03:44.797Z,0.67
2019-05-10T12:06:13.735Z,0.70
2019-05-10T12:08:43.521Z,0.70
2019-05-10T12:11:28.232Z,0.80
2019-05-10T12:13:42.865Z,0.80
2019-05-10T12:16:16.363Z,1.00
2019-05-10T12:18:46.383Z,0.60
2019-05-10T12:21:14.968Z,1.10
2019-05-10T12:26:59.150Z,0.63
2019-05-10T12:28:45.021Z,0.70
2019-05-10T12:31:17.054Z,1.10
2019-05-10T12:33:45.419Z,0.70
2019-05-10T12:36:25.512Z,0.50
2019-05-10T12:38:44.984Z,0.67
2019-05-10T12:41:13.862Z,1.20
2019-05-10T12:43:43.636Z,0.70
2019-05-10T12:46:12.603Z,0.80
2019-05-10T12:48:42.626Z,0.63
2019-05-10T12:51:12.585Z,0.77
2019-05-10T12:53:47.646Z,0.90
2019-05-10T12:56:13.716Z,0.60
2019-05-10T12:58:42.557Z,0.70
2019-05-10T13:01:11.512Z,0.70
2019-05-10T13:03:40.297Z,0.87
2019-05-10T13:06:09.484Z,1.00
2019-05-10T13:08:39.464Z,0.80
2019-05-10T13:11:08.289Z,1.37
2019-05-10T13:13:38.228Z,1.10
2019-05-10T13:16:09.525Z,0.67
2019-05-10T13:18:50.612Z,0.70
2019-05-10T13:21:20.968Z,0.50
2019-05-10T13:23:53.427Z,0.90
2019-05-10T13:26:18.748Z,0.63
2019-05-10T13:28:47.574Z,0.67
2019-05-10T13:31:16.928Z,2.67
2019-05-10T13:33:45.712Z,0.50
2019-05-10T13:36:14.618Z,0.80
2019-05-10T13:38:48.605Z,1.10
2019-05-10T13:41:17.859Z,0.50
2019-05-10T13:43:44.470Z,0.70
2019-05-10T13:46:14.266Z,0.50
2019-05-10T13:48:43.074Z,0.60
2019-05-10T13:51:11.950Z,0.77
2019-05-10T13:53:40.858Z,0.63
2019-05-10T13:56:12.480Z,0.70
2019-05-10T13:58:41.576Z,0.50
2019-05-10T14:01:13.272Z,0.53
2019-05-10T14:03:46.625Z,0.70
2019-05-10T14:06:13.699Z,0.60
2019-05-10T14:08:48.480Z,0.40
2019-05-10T14:11:19.293Z,1.10
2019-05-10T14:13:48.057Z,0.60
2019-05-10T14:16:19.821Z,0.63
2019-05-10T14:18:49.614Z,0.70
2019-05-10T14:21:18.564Z,1.03
2019-05-10T14:23:47.441Z,0.70
2019-05-10T14:26:18.177Z,0.90
2019-05-10T14:28:54.573Z,0.90
2019-05-10T14:31:29.137Z,1.23
2019-05-10T14:34:14.100Z,1.37
2019-05-10T14:36:34.080Z,1.60
2019-05-10T14:39:07.115Z,1.13
2019-05-10T14:41:40.335Z,1.03
2019-05-10T14:44:10.673Z,1.30
2019-05-10T14:46:39.588Z,1.03
2019-05-10T14:49:09.898Z,1.40
2019-05-10T14:51:58.416Z,0.80
2019-05-10T14:54:20.925Z,0.70
2019-05-10T14:56:49.784Z,1.00
2019-05-10T14:59:20.586Z,0.87
2019-05-10T15:01:49.729Z,0.60
2019-05-10T15:04:43.643Z,0.80
2019-05-10T15:06:56.099Z,0.77
2019-05-10T15:09:27.121Z,1.37
2019-05-10T15:12:10.163Z,1.27
2019-05-10T15:14:36.435Z,0.80
2019-05-10T15:17:05.387Z,1.00
2019-05-10T15:19:34.330Z,0.80
2019-05-10T15:22:03.128Z,0.80
2019-05-10T15:24:32.139Z,0.70
2019-05-10T15:27:01.093Z,1.00
2019-05-10T15:29:31.030Z,0.90
2019-05-10T15:31:59.874Z,0.70
2019-05-10T15:34:28.727Z,0.90
2019-05-10T15:37:02.662Z,1.07
2019-05-10T15:39:30.349Z,0.80
2019-05-10T15:42:00.978Z,0.87
2019-05-10T15:44:33.204Z,0.80
2019-05-10T15:47:00.414Z,1.00
2019-05-10T15:49:29.182Z,0.90
2019-05-10T15:52:16.344Z,1.17
2019-05-10T15:54:28.547Z,1.00
2019-05-10T15:56:57.387Z,1.00
2019-05-10T15:59:26.103Z,0.83
2019-05-10T16:01:54.983Z,0.87
2019-05-10T16:04:26.011Z,1.23
2019-05-10T16:06:55.199Z,1.00
2019-05-10T16:09:24.146Z,1.30
2019-05-10T16:11:55.963Z,1.53
2019-05-10T16:14:45.729Z,1.10
2019-05-10T16:17:17.551Z,0.70
2019-05-10T16:19:45.675Z,1.33
2019-05-10T16:22:34.050Z,1.47
2019-05-10T16:25:03.022Z,1.20
2019-05-10T16:27:33.954Z,1.60
2019-05-10T16:30:02.434Z,1.23
2019-05-10T16:32:34.743Z,1.40
2019-05-10T16:35:05.620Z,1.00
2019-05-10T16:37:32.424Z,0.70
2019-05-10T16:40:01.333Z,0.87
2019-05-10T16:42:34.671Z,0.80
2019-05-10T16:45:01.866Z,0.90
2019-05-10T16:47:30.929Z,0.97
2019-05-10T16:50:00.773Z,0.70
2019-05-10T16:52:35.613Z,1.00
2019-05-10T16:55:05.450Z,0.80
2019-05-10T16:57:37.360Z,0.80
2019-05-10T17:00:08.211Z,1.30
2019-05-10T17:02:36.673Z,0.93
2019-05-10T17:05:09.559Z,0.77
2019-05-10T17:07:37.201Z,0.97
2019-05-10T17:10:06.240Z,1.10
2019-05-10T17:12:35.158Z,0.83
2019-05-10T17:15:04.232Z,0.60
2019-05-10T17:17:37.098Z,0.70
2019-05-10T17:20:07.552Z,0.73
2019-05-10T17:22:34.192Z,1.00
2019-05-10T17:25:03.702Z,0.60
2019-05-10T17:27:33.438Z,0.93
2019-05-10T17:30:02.399Z,1.00
2019-05-10T17:32:31.524Z,0.77
2019-05-10T17:35:04.585Z,0.97
2019-05-10T17:37:35.809Z,0.80
2019-05-10T17:40:04.822Z,0.90
2019-05-10T17:42:35.692Z,0.80
2019-05-10T17:45:04.443Z,0.90
2019-05-10T17:47:33.788Z,0.80
2019-05-10T17:50:02.693Z,0.90
2019-05-10T17:52:31.504Z,1.20
2019-05-10T17:55:00.350Z,0.87
2019-05-10T17:57:29.061Z,0.93
2019-05-10T17:59:57.874Z,1.40
2019-05-10T18:02:26.819Z,1.00
2019-05-10T18:04:59.695Z,1.13
2019-05-10T18:07:26.303Z,1.50
2019-05-10T18:10:01.176Z,1.40
2019-05-10T18:12:29.914Z,1.10
2019-05-10T18:14:58.731Z,1.30
2019-05-10T18:17:27.672Z,1.50
2019-05-10T18:20:01.835Z,1.47
2019-05-10T18:22:29.024Z,1.20
2019-05-10T18:24:57.626Z,1.07
2019-05-10T18:27:26.439Z,1.43
2019-05-10T18:29:55.254Z,1.43
2019-05-10T18:32:29.216Z,1.50
2019-05-10T18:34:54.742Z,0.90
2019-05-10T18:37:23.561Z,1.50
2019-05-10T18:39:53.326Z,1.40
2019-05-10T18:42:25.477Z,1.00
2019-05-10T18:44:54.209Z,0.90
2019-05-10T18:47:23.079Z,1.20
2019-05-10T18:49:51.803Z,1.17
2019-05-10T18:52:20.532Z,1.53
2019-05-10T18:54:49.389Z,1.27
2019-05-10T18:57:19.438Z,1.27
2019-05-10T18:59:48.899Z,1.23
2019-05-10T19:02:20.155Z,1.17
2019-05-10T19:04:52.238Z,1.10
2019-05-10T19:07:19.664Z,1.20
2019-05-10T19:09:48.456Z,1.50
2019-05-10T19:12:21.689Z,1.20
2019-05-10T19:14:47.985Z,1.40
2019-05-10T19:17:16.707Z,1.40
2019-05-10T19:19:47.523Z,1.33
2019-05-10T19:22:18.359Z,1.37
2019-05-10T19:24:47.330Z,1.30
2019-05-10T19:27:16.187Z,1.83
2019-05-10T19:29:47.983Z,1.30
2019-05-10T19:32:18.325Z,1.67
2019-05-10T19:34:48.392Z,1.63
2019-05-10T19:37:28.784Z,2.20
2019-05-10T19:39:48.889Z,1.60
2019-05-10T19:42:17.663Z,1.67
2019-05-10T19:44:46.479Z,1.60
2019-05-10T19:47:17.880Z,2.10
2019-05-10T19:49:51.613Z,2.30
2019-05-10T19:52:21.316Z,2.60
2019-05-10T19:54:54.195Z,2.30
2019-05-10T19:57:25.084Z,2.37
2019-05-10T19:59:55.975Z,2.60
2019-05-10T20:02:24.921Z,2.20
2019-05-10T20:04:53.798Z,2.13
2019-05-10T20:07:25.105Z,2.00
2019-05-10T20:10:00.686Z,2.53
2019-05-10T20:12:30.701Z,3.00
2019-05-10T20:14:59.985Z,2.60
2019-05-10T20:17:31.160Z,2.93
2019-05-10T20:20:01.276Z,1.87
2019-05-10T20:22:30.280Z,2.13
2019-05-10T20:24:59.205Z,2.10
2019-05-10T20:27:28.143Z,2.10
2019-05-10T20:29:58.905Z,2.17
2019-05-10T20:32:27.886Z,2.30
2019-05-10T20:35:04.888Z,2.60
2019-05-10T20:37:33.699Z,2.43
2019-05-10T20:40:09.505Z,2.60
2019-05-10T20:42:39.576Z,2.83
2019-05-10T20:45:12.785Z,2.60
2019-05-10T20:47:42.741Z,2.00
2019-05-10T20:50:12.022Z,2.70
2019-05-10T20:52:42.908Z,2.60
2019-05-10T20:55:13.121Z,2.87
2019-05-10T20:57:43.920Z,3.37
2019-05-10T21:00:12.908Z,3.17
2019-05-10T21:02:41.908Z,3.20
2019-05-10T21:05:10.990Z,2.80
2019-05-10T21:07:41.883Z,2.90
2019-05-10T21:10:12.272Z,3.40
2019-05-10T21:12:42.216Z,3.27
2019-05-10T21:15:11.352Z,3.17
2019-05-10T21:17:40.900Z,3.17
2019-05-10T21:20:12.903Z,3.10
2019-05-10T21:22:41.729Z,3.27
2019-05-10T21:25:11.758Z,2.77
2019-05-10T21:27:41.677Z,3.20
2019-05-10T21:30:11.594Z,3.00
2019-05-10T21:32:41.808Z,2.70
2019-05-10T21:35:10.800Z,3.60
2019-05-10T21:37:39.667Z,3.13
2019-05-10T21:40:08.742Z,3.33
2019-05-10T21:42:37.630Z,3.23
2019-05-10T21:45:06.640Z,3.40
2019-05-10T21:47:50.366Z,4.10
2019-05-10T21:50:06.204Z,3.20
2019-05-10T21:52:35.093Z,3.77
2019-05-10T21:55:04.044Z,4.40
2019-05-10T21:57:32.857Z,4.23
2019-05-10T22:00:01.693Z,4.17
2019-05-10T22:02:31.033Z,4.17
2019-05-10T22:05:00.013Z,3.93
2019-05-10T22:07:28.828Z,4.40
2019-05-10T22:09:57.741Z,3.90
2019-05-10T22:12:26.531Z,3.87
2019-05-10T22:14:55.377Z,4.20
2019-05-10T22:17:24.214Z,4.67
2019-05-10T22:19:52.998Z,4.63
2019-05-10T22:22:21.822Z,4.70
2019-05-10T22:24:50.614Z,5.30
2019-05-10T22:27:19.451Z,4.60
2019-05-10T22:29:48.260Z,5.10
2019-05-10T22:32:17.118Z,4.83
2019-05-10T22:34:46.042Z,5.20
2019-05-10T22:37:14.807Z,5.47
2019-05-10T22:39:43.849Z,4.80
2019-05-10T22:42:12.986Z,4.27
2019-05-10T22:44:41.850Z,5.07
2019-05-10T22:47:10.743Z,4.73
2019-05-10T22:49:39.745Z,3.93
2019-05-10T22:52:08.590Z,4.83
2019-05-10T22:54:37.748Z,4.77
2019-05-10T22:57:06.558Z,5.10
2019-05-10T22:59:35.430Z,4.57
2019-05-10T23:02:04.259Z,5.10
2019-05-10T23:04:33.100Z,4.93
2019-05-10T23:07:02.246Z,5.00
2019-05-10T23:09:31.209Z,4.93
2019-05-10T23:12:00.137Z,4.53
2019-05-10T23:14:29.311Z,4.63
2019-05-10T23:16:58.145Z,4.20
2019-05-10T23:19:27.399Z,4.70
2019-05-10T23:21:56.392Z,4.80
2019-05-10T23:24:39.376Z,4.57
2019-05-10T23:27:08.293Z,4.30
2019-05-10T23:29:37.320Z,4.00
2019-05-10T23:32:06.226Z,4.97
2019-05-10T23:34:35.109Z,4.83
2019-05-10T23:37:04.092Z,4.10
2019-05-10T23:39:40.646Z,4.23
2019-05-10T23:42:03.752Z,3.90
2019-05-10T23:44:32.594Z,4.97
2019-05-10T23:47:01.510Z,4.40
2019-05-10T23:49:30.345Z,4.70
2019-05-10T23:51:59.117Z,4.30
2019-05-10T23:54:27.903Z,5.00
2019-05-10T23:56:56.789Z,4.90
2019-05-10T23:59:27.584Z,4.50
